Shin Itikawa Maru — JD3490 — position and weather

sailwx.info

Track history (hours):
 
Tides and Currents Weather Stations Pressure Air Temp Water Temp Dewpoint Dewpoint Depression Visibility Wind Speed Wind Dir Waves Ship Positions

Shin Itikawa Maru

Last reported at 2018-Jun-22 23:01 UTC. Time now 2018-Jun-22 23:01 UTC.
Position N 35°24' E 139°45'.

Length 84 m; draft 5 m.

Type: Cargo ship. MMSI: 431004252.

Date/timePositionNaut miles runAvg speedWind from/ knotsBaromVisibWave heightAir tempDewpointWater temp
2018-Jun-22 23:01N 35°24' E 139°45'0 0.0
2018-Jun-22 22:28N 35°24' E 139°45'0 0.0
2018-Jun-22 21:57N 35°24' E 139°45'0 0.0
2018-Jun-22 21:30N 35°24' E 139°45'0 0.0
2018-Jun-22 21:00N 35°24' E 139°45'1 2.4
2018-Jun-22 20:30N 35°23' E 139°45'510.3
2018-Jun-22 20:00N 35°18' E 139°45'611.2
2018-Jun-22 19:30N 35°12' E 139°47'24611.2
2018-Jun-21 21:38N 33°49' E 135°06'512.5
2018-Jun-21 21:16N 33°52' E 135°02'312.7
2018-Jun-21 21:00N 33°55' E 134°60'1212.3
2018-Jun-21 20:04N 34°03' E 134°50'112.5
2018-Jun-21 20:00N 34°04' E 134°50'1012.5
2018-Jun-21 19:10N 34°12' E 134°41'312.1
2018-Jun-21 18:57N 34°14' E 134°39'511.2
2018-Jun-21 18:30N 34°17' E 134°34'611.3
2018-Jun-21 18:00N 34°19' E 134°28'3 5.4
2018-Jun-21 17:30N 34°20' E 134°25'510.9
2018-Jun-21 17:00N 34°22' E 134°19'710.6
2018-Jun-21 16:24N 34°24' E 134°12'7 0.2
2018-Jun-20 00:10N 34°23' E 134°21'411.7
2018-Jun-19 23:48N 34°21' E 134°25'1411.0
2018-Jun-19 22:34N 34°14' E 134°39'1 9.2
2018-Jun-19 22:27N 34°13' E 134°40'7 9.9
2018-Jun-19 21:46N 34°07' E 134°43'411.3
2018-Jun-19 21:26N 34°03' E 134°44'3 6.2
2018-Jun-19 20:56N 34°01' E 134°47'511.0
2018-Jun-19 20:30N 33°58' E 134°52'611.6
2018-Jun-19 20:00N 33°55' E 134°58'611.9
2018-Jun-19 19:28N 33°50' E 135°02'24810.8
2018-Jun-18 20:28N 35°13' E 139°46'612.8
2018-Jun-18 20:00N 35°19' E 139°43'612.0
2018-Jun-18 19:30N 35°25' E 139°43'713.4
2018-Jun-18 19:00N 35°29' E 139°50'9 1.0
2018-Jun-18 09:04N 35°37' E 139°57'0 0.0
2018-Jun-18 08:52N 35°37' E 139°57'0 0.0
2018-Jun-18 08:25N 35°37' E 139°57'0 0.0
2018-Jun-18 07:43N 35°37' E 139°57'0 0.0
2018-Jun-18 07:22N 35°37' E 139°57'8 0.6
2018-Jun-17 18:52N 35°30' E 139°52'512.1
2018-Jun-17 18:28N 35°26' E 139°48'612.0
2018-Jun-17 17:59N 35°21' E 139°45'511.0
2018-Jun-17 17:30N 35°16' E 139°46'611.6
2018-Jun-17 17:00N 35°10' E 139°46'24610.3
2018-Jun-16 17:05N 33°52' E 135°03'113.1
2018-Jun-16 17:00N 33°52' E 135°02'712.9
2018-Jun-16 16:28N 33°58' E 134°57'812.5
2018-Jun-16 15:49N 34°04' E 134°50'512.7
2018-Jun-16 15:26N 34°07' E 134°46'612.6
2018-Jun-16 14:57N 34°12' E 134°42'812.1
2018-Jun-16 14:18N 34°17' E 134°34'311.9
2018-Jun-16 14:00N 34°18' E 134°30'611.5
2018-Jun-16 13:30N 34°20' E 134°24'810.9
2018-Jun-16 12:47N 34°23' E 134°15'5 0.1
2018-Jun-14 21:57N 34°23' E 134°20'512.3
2018-Jun-14 21:30N 34°20' E 134°26'2112.2
2018-Jun-14 19:47N 34°07' E 134°46'312.0
2018-Jun-14 19:30N 34°05' E 134°49'612.0
2018-Jun-14 19:00N 34°00' E 134°54'612.2
2018-Jun-14 18:30N 33°56' E 134°59'24910.5
2018-Jun-13 18:50N 35°13' E 139°46'412.1
2018-Jun-13 18:30N 35°17' E 139°45'612.3
2018-Jun-13 18:00N 35°22' E 139°42'611.5
2018-Jun-13 17:30N 35°27' E 139°47'612.3
2018-Jun-13 16:59N 35°31' E 139°53'2 0.2
2018-Jun-13 07:24N 35°31' E 139°55'610.6
2018-Jun-13 06:50N 35°27' E 139°50'411.6
2018-Jun-13 06:30N 35°24' E 139°46'611.6
2018-Jun-13 06:00N 35°19' E 139°44'611.5
2018-Jun-13 05:30N 35°14' E 139°47'611.1
2018-Jun-13 05:00N 35°08' E 139°45'  
Track history (hours):
 
Tides and Currents Weather Stations Pressure Air Temp Water Temp Dewpoint Dewpoint Depression Visibility Wind Speed Wind Dir Waves Ship Positions

Shin Itikawa Maru

Last reported at 2018-Jun-22 23:01 UTC. Time now 2018-Jun-22 23:01 UTC.
Position N 35°24' E 139°45'.

Length 84 m; draft 5 m.

Type: Cargo ship. MMSI: 431004252.

Date/timePositionNaut miles runAvg speedWind from/ knotsBaromVisibWave heightAir tempDewpointWater temp
2018-Jun-22 23:01N 35°24' E 139°45'0 0.0
2018-Jun-22 22:28N 35°24' E 139°45'0 0.0
2018-Jun-22 21:57N 35°24' E 139°45'0 0.0
2018-Jun-22 21:30N 35°24' E 139°45'0 0.0
2018-Jun-22 21:00N 35°24' E 139°45'1 2.4
2018-Jun-22 20:30N 35°23' E 139°45'510.3
2018-Jun-22 20:00N 35°18' E 139°45'611.2
2018-Jun-22 19:30N 35°12' E 139°47'24611.2
2018-Jun-21 21:38N 33°49' E 135°06'512.5
2018-Jun-21 21:16N 33°52' E 135°02'312.7
2018-Jun-21 21:00N 33°55' E 134°60'1212.3
2018-Jun-21 20:04N 34°03' E 134°50'112.5
2018-Jun-21 20:00N 34°04' E 134°50'1012.5
2018-Jun-21 19:10N 34°12' E 134°41'312.1
2018-Jun-21 18:57N 34°14' E 134°39'511.2
2018-Jun-21 18:30N 34°17' E 134°34'611.3
2018-Jun-21 18:00N 34°19' E 134°28'3 5.4
2018-Jun-21 17:30N 34°20' E 134°25'510.9
2018-Jun-21 17:00N 34°22' E 134°19'710.6
2018-Jun-21 16:24N 34°24' E 134°12'7 0.2
2018-Jun-20 00:10N 34°23' E 134°21'411.7
2018-Jun-19 23:48N 34°21' E 134°25'1411.0
2018-Jun-19 22:34N 34°14' E 134°39'1 9.2
2018-Jun-19 22:27N 34°13' E 134°40'7 9.9
2018-Jun-19 21:46N 34°07' E 134°43'411.3
2018-Jun-19 21:26N 34°03' E 134°44'3 6.2
2018-Jun-19 20:56N 34°01' E 134°47'511.0
2018-Jun-19 20:30N 33°58' E 134°52'611.6
2018-Jun-19 20:00N 33°55' E 134°58'611.9
2018-Jun-19 19:28N 33°50' E 135°02'24810.8
2018-Jun-18 20:28N 35°13' E 139°46'612.8
2018-Jun-18 20:00N 35°19' E 139°43'612.0
2018-Jun-18 19:30N 35°25' E 139°43'713.4
2018-Jun-18 19:00N 35°29' E 139°50'9 1.0
2018-Jun-18 09:04N 35°37' E 139°57'0 0.0
2018-Jun-18 08:52N 35°37' E 139°57'0 0.0
2018-Jun-18 08:25N 35°37' E 139°57'0 0.0
2018-Jun-18 07:43N 35°37' E 139°57'0 0.0
2018-Jun-18 07:22N 35°37' E 139°57'8 0.6
2018-Jun-17 18:52N 35°30' E 139°52'512.1
2018-Jun-17 18:28N 35°26' E 139°48'612.0
2018-Jun-17 17:59N 35°21' E 139°45'511.0
2018-Jun-17 17:30N 35°16' E 139°46'611.6
2018-Jun-17 17:00N 35°10' E 139°46'24610.3
2018-Jun-16 17:05N 33°52' E 135°03'113.1
2018-Jun-16 17:00N 33°52' E 135°02'712.9
2018-Jun-16 16:28N 33°58' E 134°57'812.5
2018-Jun-16 15:49N 34°04' E 134°50'512.7
2018-Jun-16 15:26N 34°07' E 134°46'612.6
2018-Jun-16 14:57N 34°12' E 134°42'812.1
2018-Jun-16 14:18N 34°17' E 134°34'311.9
2018-Jun-16 14:00N 34°18' E 134°30'611.5
2018-Jun-16 13:30N 34°20' E 134°24'810.9
2018-Jun-16 12:47N 34°23' E 134°15'5 0.1
2018-Jun-14 21:57N 34°23' E 134°20'512.3
2018-Jun-14 21:30N 34°20' E 134°26'2112.2
2018-Jun-14 19:47N 34°07' E 134°46'312.0
2018-Jun-14 19:30N 34°05' E 134°49'612.0
2018-Jun-14 19:00N 34°00' E 134°54'612.2
2018-Jun-14 18:30N 33°56' E 134°59'24910.5
2018-Jun-13 18:50N 35°13' E 139°46'412.1
2018-Jun-13 18:30N 35°17' E 139°45'612.3
2018-Jun-13 18:00N 35°22' E 139°42'611.5
2018-Jun-13 17:30N 35°27' E 139°47'612.3
2018-Jun-13 16:59N 35°31' E 139°53'2 0.2
2018-Jun-13 07:24N 35°31' E 139°55'610.6
2018-Jun-13 06:50N 35°27' E 139°50'411.6
2018-Jun-13 06:30N 35°24' E 139°46'611.6
2018-Jun-13 06:00N 35°19' E 139°44'611.5
2018-Jun-13 05:30N 35°14' E 139°47'611.1
2018-Jun-13 05:00N 35°08' E 139°45'  

Dump ship's entire track history